createdAt,value
2023-01-08T00:00:29.789Z,972.80
2023-01-08T00:01:29.766Z,972.77
2023-01-08T00:02:29.834Z,972.79
2023-01-08T00:03:29.856Z,972.79
2023-01-08T00:04:29.733Z,972.80
2023-01-08T00:05:29.722Z,972.80
2023-01-08T00:06:29.735Z,972.75
2023-01-08T00:07:29.706Z,972.72
2023-01-08T00:08:29.701Z,972.68
2023-01-08T00:09:29.691Z,972.57
2023-01-08T00:10:29.673Z,972.60
2023-01-08T00:11:29.679Z,972.60
2023-01-08T00:12:29.662Z,972.64
2023-01-08T00:13:29.653Z,972.59
2023-01-08T00:14:29.646Z,972.59
2023-01-08T00:15:29.636Z,972.62
2023-01-08T00:16:29.705Z,972.53
2023-01-08T00:17:29.623Z,972.56
2023-01-08T00:18:29.614Z,972.50
2023-01-08T00:19:29.607Z,972.54
2023-01-08T00:20:29.591Z,972.50
2023-01-08T00:21:29.608Z,972.54
2023-01-08T00:22:29.571Z,972.55
2023-01-08T00:23:29.575Z,972.50
2023-01-08T00:24:29.644Z,972.41
2023-01-08T00:25:29.545Z,972.56
2023-01-08T00:26:29.537Z,972.50
2023-01-08T00:27:29.537Z,972.49
2023-01-08T00:28:29.521Z,972.52
2023-01-08T00:29:29.514Z,972.53
2023-01-08T00:30:29.544Z,972.55
2023-01-08T00:31:29.497Z,972.54
2023-01-08T00:32:29.498Z,972.56
2023-01-08T00:33:29.470Z,972.59
2023-01-08T00:34:29.465Z,972.74
2023-01-08T00:35:29.460Z,972.60
2023-01-08T00:36:29.449Z,972.61
2023-01-08T00:37:29.448Z,972.55
2023-01-08T00:38:29.443Z,972.55
2023-01-08T00:39:29.419Z,972.69
2023-01-08T00:40:29.501Z,972.67
2023-01-08T00:41:29.402Z,972.58
2023-01-08T00:42:29.429Z,972.60
2023-01-08T00:43:29.377Z,972.50
2023-01-08T00:44:29.371Z,972.51
2023-01-08T00:45:29.375Z,972.48
2023-01-08T00:46:29.385Z,972.47
2023-01-08T00:47:29.390Z,972.35
2023-01-08T00:48:29.340Z,972.42
2023-01-08T00:49:29.324Z,972.36
2023-01-08T00:50:29.326Z,972.41
2023-01-08T00:51:29.303Z,972.46
2023-01-08T00:52:29.309Z,972.48
2023-01-08T00:53:29.289Z,972.42
2023-01-08T00:54:29.276Z,972.34
2023-01-08T00:55:29.265Z,972.35
2023-01-08T00:56:29.355Z,972.36
2023-01-08T00:57:29.259Z,972.27
2023-01-08T00:58:29.241Z,972.33
2023-01-08T00:59:29.227Z,972.28
2023-01-08T01:00:29.226Z,972.39
2023-01-08T01:01:29.277Z,972.39
2023-01-08T01:02:29.210Z,972.37
2023-01-08T01:03:29.219Z,972.42
2023-01-08T01:04:29.217Z,972.38
2023-01-08T01:05:29.171Z,972.28
2023-01-08T01:06:29.165Z,972.33
2023-01-08T01:07:29.164Z,972.39
2023-01-08T01:08:29.145Z,972.38
2023-01-08T01:09:29.146Z,972.32
2023-01-08T01:10:29.131Z,972.34
2023-01-08T01:11:29.115Z,972.35
2023-01-08T01:12:29.216Z,972.33
2023-01-08T01:13:29.096Z,972.22
2023-01-08T01:14:29.087Z,972.26
2023-01-08T01:15:29.080Z,972.27
2023-01-08T01:16:29.114Z,972.24
2023-01-08T01:17:29.070Z,972.22
2023-01-08T01:18:29.059Z,972.14
2023-01-08T01:19:29.043Z,972.14
2023-01-08T01:20:29.030Z,972.23
2023-01-08T01:21:29.049Z,972.24
2023-01-08T01:22:29.034Z,972.17
2023-01-08T01:23:29.011Z,972.14
2023-01-08T01:24:29.008Z,972.18
2023-01-08T01:25:28.993Z,972.23
2023-01-08T01:26:28.986Z,972.22
2023-01-08T01:27:28.984Z,972.26
2023-01-08T01:28:29.059Z,972.33
2023-01-08T01:29:28.973Z,972.31
2023-01-08T01:30:28.941Z,972.32
2023-01-08T01:31:28.946Z,972.38
2023-01-08T01:32:28.932Z,972.41
2023-01-08T01:33:28.909Z,972.43
2023-01-08T01:34:28.900Z,972.48
2023-01-08T01:35:28.896Z,972.40
2023-01-08T01:36:28.891Z,972.44
2023-01-08T01:37:28.888Z,972.47
2023-01-08T01:38:28.863Z,972.51
2023-01-08T01:39:28.901Z,972.49
2023-01-08T01:40:28.841Z,972.45
2023-01-08T01:41:28.831Z,972.50
2023-01-08T01:42:28.832Z,972.50
2023-01-08T01:43:28.816Z,972.46
2023-01-08T01:44:28.913Z,972.46
2023-01-08T01:45:28.801Z,972.43
2023-01-08T01:46:28.791Z,972.43
2023-01-08T01:47:28.783Z,972.41
2023-01-08T01:48:28.774Z,972.46
2023-01-08T01:49:28.843Z,972.39
2023-01-08T01:50:28.756Z,972.31
2023-01-08T01:51:28.736Z,972.34
2023-01-08T01:52:28.741Z,972.38
2023-01-08T01:53:28.723Z,972.45
2023-01-08T01:54:28.709Z,972.51
2023-01-08T01:55:28.709Z,972.46
2023-01-08T01:56:28.718Z,972.48
2023-01-08T01:57:28.699Z,972.49
2023-01-08T01:58:28.672Z,972.43
2023-01-08T01:59:28.679Z,972.38
2023-01-08T02:00:28.750Z,972.44
2023-01-08T02:01:28.766Z,972.43
2023-01-08T02:02:28.706Z,972.40
2023-01-08T02:03:28.630Z,972.39
2023-01-08T02:04:28.651Z,972.34
2023-01-08T02:05:28.611Z,972.37
2023-01-08T02:06:28.605Z,972.39
2023-01-08T02:07:28.620Z,972.39
2023-01-08T02:08:28.580Z,972.41
2023-01-08T02:09:28.573Z,972.36
2023-01-08T02:10:28.567Z,972.39
2023-01-08T02:11:28.557Z,972.41
2023-01-08T02:12:28.562Z,972.51
2023-01-08T02:13:28.540Z,972.52
2023-01-08T02:14:28.528Z,972.39
2023-01-08T02:15:28.513Z,972.44
2023-01-08T02:16:29.604Z,972.48
2023-01-08T02:17:28.516Z,972.45
2023-01-08T02:18:28.499Z,972.46
2023-01-08T02:19:28.488Z,972.49
2023-01-08T02:20:28.479Z,972.53
2023-01-08T02:21:28.472Z,972.46
2023-01-08T02:22:28.469Z,972.54
2023-01-08T02:23:29.453Z,972.58
2023-01-08T02:24:28.439Z,972.56
2023-01-08T02:25:28.438Z,972.56
2023-01-08T02:26:28.421Z,972.52
2023-01-08T02:27:28.423Z,972.40
2023-01-08T02:28:28.406Z,972.41
2023-01-08T02:29:28.399Z,972.56
2023-01-08T02:30:28.399Z,972.48
2023-01-08T02:31:28.372Z,972.54
2023-01-08T02:32:28.471Z,972.51
2023-01-08T02:33:28.358Z,972.52
2023-01-08T02:34:28.335Z,972.58
2023-01-08T02:35:29.331Z,972.50
2023-01-08T02:36:28.328Z,972.53
2023-01-08T02:37:28.335Z,972.49
2023-01-08T02:38:28.313Z,972.41
2023-01-08T02:39:28.305Z,972.42
2023-01-08T02:40:28.288Z,972.43
2023-01-08T02:41:28.283Z,972.44
2023-01-08T02:42:28.279Z,972.38
2023-01-08T02:43:28.254Z,972.36
2023-01-08T02:44:28.253Z,972.32
2023-01-08T02:45:28.248Z,972.38
2023-01-08T02:46:28.316Z,972.29
2023-01-08T02:47:28.232Z,972.27
2023-01-08T02:48:28.214Z,972.26
2023-01-08T02:49:28.203Z,972.21
2023-01-08T02:50:28.200Z,972.15
2023-01-08T02:51:28.183Z,972.26
2023-01-08T02:52:28.195Z,972.21
2023-01-08T02:53:28.178Z,972.21
2023-01-08T02:54:28.152Z,972.21
2023-01-08T02:55:28.143Z,972.19
2023-01-08T02:56:28.140Z,972.18
2023-01-08T02:57:28.164Z,972.16
2023-01-08T02:58:28.117Z,972.15
2023-01-08T02:59:28.105Z,972.26
2023-01-08T03:00:28.101Z,972.17
2023-01-08T03:01:28.231Z,972.15
2023-01-08T03:02:28.171Z,972.15
2023-01-08T03:03:28.075Z,972.12
2023-01-08T03:04:28.276Z,972.05
2023-01-08T03:05:28.051Z,972.16
2023-01-08T03:06:28.051Z,972.14
2023-01-08T03:07:28.049Z,972.11
2023-01-08T03:08:28.030Z,972.15
2023-01-08T03:09:28.017Z,972.10
2023-01-08T03:10:28.013Z,972.06
2023-01-08T03:11:27.996Z,972.03
2023-01-08T03:12:28.007Z,972.06
2023-01-08T03:13:27.982Z,972.01
2023-01-08T03:14:27.987Z,972.04
2023-01-08T03:15:27.976Z,972.00
2023-01-08T03:16:27.993Z,972.05
2023-01-08T03:17:27.974Z,972.02
2023-01-08T03:18:27.931Z,972.00
2023-01-08T03:19:27.944Z,972.07
2023-01-08T03:20:28.004Z,971.97
2023-01-08T03:21:27.907Z,972.01
2023-01-08T03:22:27.901Z,971.93
2023-01-08T03:23:27.892Z,972.01
2023-01-08T03:24:27.877Z,972.05
2023-01-08T03:25:27.865Z,972.03
2023-01-08T03:26:27.852Z,971.99
2023-01-08T03:27:27.847Z,971.98
2023-01-08T03:28:27.849Z,971.98
2023-01-08T03:29:27.893Z,971.95
2023-01-08T03:30:27.820Z,971.93
2023-01-08T03:31:27.814Z,971.90
2023-01-08T03:32:27.797Z,971.85
2023-01-08T03:33:27.807Z,971.81
2023-01-08T03:34:27.785Z,971.86
2023-01-08T03:35:27.774Z,971.86
2023-01-08T03:36:27.851Z,971.87
2023-01-08T03:37:27.808Z,971.84
2023-01-08T03:38:27.763Z,971.87
2023-01-08T03:39:27.793Z,971.83
2023-01-08T03:40:27.729Z,971.86
2023-01-08T03:41:27.719Z,971.81
2023-01-08T03:42:27.708Z,971.82
2023-01-08T03:43:27.715Z,971.82
2023-01-08T03:44:27.687Z,971.81
2023-01-08T03:45:27.681Z,971.83
2023-01-08T03:46:28.278Z,971.81
2023-01-08T03:47:28.662Z,971.76
2023-01-08T03:48:27.659Z,971.84
2023-01-08T03:49:27.764Z,971.76
2023-01-08T03:50:27.638Z,971.70
2023-01-08T03:51:27.635Z,971.76
2023-01-08T03:52:27.635Z,971.70
2023-01-08T03:53:27.625Z,971.71
2023-01-08T03:54:27.602Z,971.79
2023-01-08T03:55:27.597Z,971.72
2023-01-08T03:56:27.574Z,971.76
2023-01-08T03:57:28.579Z,971.74
2023-01-08T03:58:27.585Z,971.69
2023-01-08T03:59:27.560Z,971.72
2023-01-08T04:00:27.542Z,971.72
2023-01-08T04:01:27.645Z,971.68
2023-01-08T04:02:27.682Z,971.67
2023-01-08T04:03:27.524Z,971.65
2023-01-08T04:04:27.530Z,971.63
2023-01-08T04:05:27.497Z,971.72
2023-01-08T04:06:27.483Z,971.58
2023-01-08T04:07:27.480Z,971.68
2023-01-08T04:08:27.577Z,971.63
2023-01-08T04:09:27.463Z,971.60
2023-01-08T04:10:27.462Z,971.61
2023-01-08T04:11:27.439Z,971.66
2023-01-08T04:12:27.456Z,971.62
2023-01-08T04:13:27.442Z,971.60
2023-01-08T04:14:27.424Z,971.57
2023-01-08T04:15:27.412Z,971.52
2023-01-08T04:16:27.394Z,971.50
2023-01-08T04:17:27.387Z,971.56
2023-01-08T04:18:27.402Z,971.52
2023-01-08T04:19:27.370Z,971.57
2023-01-08T04:20:27.362Z,971.51
2023-01-08T04:21:27.354Z,971.48
2023-01-08T04:22:27.351Z,971.48
2023-01-08T04:23:27.346Z,971.50
2023-01-08T04:24:27.323Z,971.50
2023-01-08T04:25:27.318Z,971.43
2023-01-08T04:26:27.303Z,971.41
2023-01-08T04:27:27.297Z,971.43
2023-01-08T04:28:27.304Z,971.40
2023-01-08T04:29:27.272Z,971.40
2023-01-08T04:30:27.267Z,971.41
2023-01-08T04:31:27.387Z,971.38
2023-01-08T04:32:27.256Z,971.42
2023-01-08T04:33:27.267Z,971.40
2023-01-08T04:34:27.241Z,971.37
2023-01-08T04:35:27.232Z,971.34
2023-01-08T04:36:27.232Z,971.32
2023-01-08T04:37:27.211Z,971.31
2023-01-08T04:38:27.228Z,971.30
2023-01-08T04:39:27.195Z,971.30
2023-01-08T04:40:27.290Z,971.32
2023-01-08T04:41:27.174Z,971.32
2023-01-08T04:42:27.166Z,971.31
2023-01-08T04:43:27.172Z,971.22
2023-01-08T04:44:27.153Z,971.26
2023-01-08T04:45:27.172Z,971.20
2023-01-08T04:46:27.203Z,971.28
2023-01-08T04:47:27.127Z,971.32
2023-01-08T04:48:27.113Z,971.31
2023-01-08T04:49:28.124Z,971.30
2023-01-08T04:50:27.099Z,971.18
2023-01-08T04:51:27.092Z,971.23
2023-01-08T04:52:58.989Z,971.26
2023-01-08T04:53:27.079Z,971.23
2023-01-08T04:54:27.067Z,971.25
2023-01-08T04:55:27.059Z,971.19
2023-01-08T04:56:27.164Z,971.13
2023-01-08T04:57:27.045Z,971.13
2023-01-08T04:58:27.056Z,971.12
2023-01-08T04:59:27.028Z,971.03
2023-01-08T05:00:27.031Z,971.00
2023-01-08T05:01:27.149Z,971.02
2023-01-08T05:02:27.169Z,970.99
2023-01-08T05:03:27.072Z,970.98
2023-01-08T05:04:26.973Z,971.05
2023-01-08T05:05:26.962Z,970.97
2023-01-08T05:06:26.956Z,970.93
2023-01-08T05:07:26.947Z,970.95
2023-01-08T05:08:26.950Z,970.99
2023-01-08T05:09:26.929Z,970.99
2023-01-08T05:10:26.917Z,970.97
2023-01-08T05:11:26.914Z,971.02
2023-01-08T05:12:27.002Z,970.96
2023-01-08T05:13:26.904Z,970.99
2023-01-08T05:14:26.884Z,970.93
2023-01-08T05:15:26.970Z,970.90
2023-01-08T05:16:26.864Z,970.90
2023-01-08T05:17:26.848Z,970.88
2023-01-08T05:18:26.857Z,970.88
2023-01-08T05:19:26.874Z,970.83
2023-01-08T05:20:26.829Z,970.89
2023-01-08T05:21:26.816Z,970.82
2023-01-08T05:22:26.829Z,970.86
2023-01-08T05:23:26.817Z,970.85
2023-01-08T05:24:26.791Z,970.91
2023-01-08T05:25:26.822Z,970.92
2023-01-08T05:26:26.777Z,970.86
2023-01-08T05:27:26.770Z,970.84
2023-01-08T05:28:26.862Z,970.89
2023-01-08T05:29:26.763Z,970.86
2023-01-08T05:30:26.749Z,970.88
2023-01-08T05:31:26.803Z,970.81
2023-01-08T05:32:26.730Z,970.78
2023-01-08T05:33:26.728Z,970.84
2023-01-08T05:34:26.708Z,970.88
2023-01-08T05:35:26.714Z,970.82
2023-01-08T05:36:26.700Z,970.84
2023-01-08T05:37:26.679Z,970.84
2023-01-08T05:38:26.683Z,970.79
2023-01-08T05:39:26.690Z,970.78
2023-01-08T05:40:26.657Z,970.80
2023-01-08T05:41:26.647Z,970.80
2023-01-08T05:42:26.634Z,970.77
2023-01-08T05:43:26.650Z,970.66
2023-01-08T05:44:26.760Z,970.71
2023-01-08T05:45:26.646Z,970.71
2023-01-08T05:46:26.697Z,970.71
2023-01-08T05:47:26.593Z,970.67
2023-01-08T05:48:26.591Z,970.67
2023-01-08T05:49:26.578Z,970.73
2023-01-08T05:50:26.563Z,970.67
2023-01-08T05:51:26.549Z,970.67
2023-01-08T05:52:27.542Z,970.71
2023-01-08T05:53:26.569Z,970.66
2023-01-08T05:54:26.559Z,970.62
2023-01-08T05:55:26.546Z,970.63
2023-01-08T05:56:26.502Z,970.63
2023-01-08T05:57:26.513Z,970.60
2023-01-08T05:58:26.535Z,970.63
2023-01-08T05:59:26.490Z,970.62
2023-01-08T06:00:26.601Z,970.60
2023-01-08T06:01:26.503Z,970.59
2023-01-08T06:02:26.463Z,970.55
2023-01-08T06:03:26.448Z,970.64
2023-01-08T06:04:26.497Z,970.60
2023-01-08T06:05:26.423Z,970.60
2023-01-08T06:06:26.419Z,970.62
2023-01-08T06:07:26.405Z,970.57
2023-01-08T06:08:26.434Z,970.61
2023-01-08T06:09:26.425Z,970.63
2023-01-08T06:10:26.388Z,970.59
2023-01-08T06:11:27.392Z,970.68
2023-01-08T06:12:26.363Z,970.64
2023-01-08T06:13:26.387Z,970.64
2023-01-08T06:14:26.344Z,970.70
2023-01-08T06:15:26.347Z,970.69
2023-01-08T06:16:26.416Z,970.67
2023-01-08T06:17:26.327Z,970.68
2023-01-08T06:18:26.319Z,970.62
2023-01-08T06:19:26.295Z,970.67
2023-01-08T06:20:26.289Z,970.68
2023-01-08T06:21:26.278Z,970.71
2023-01-08T06:22:26.273Z,970.70
2023-01-08T06:23:26.321Z,970.69
2023-01-08T06:24:26.254Z,970.70
2023-01-08T06:25:26.246Z,970.76
2023-01-08T06:26:26.237Z,970.72
2023-01-08T06:27:26.224Z,970.75
2023-01-08T06:28:26.228Z,970.70
2023-01-08T06:29:26.223Z,970.72
2023-01-08T06:30:26.201Z,970.72
2023-01-08T06:31:26.261Z,970.76
2023-01-08T06:32:26.268Z,970.66
2023-01-08T06:33:26.208Z,970.69
2023-01-08T06:34:26.182Z,970.68
2023-01-08T06:35:26.217Z,970.72
2023-01-08T06:36:26.151Z,970.70
2023-01-08T06:37:26.140Z,970.67
2023-01-08T06:38:26.130Z,970.69
2023-01-08T06:39:26.148Z,970.75
2023-01-08T06:40:26.123Z,970.72
2023-01-08T06:41:26.118Z,970.72
2023-01-08T06:42:26.115Z,970.73
2023-01-08T06:43:26.083Z,970.73
2023-01-08T06:44:26.092Z,970.75
2023-01-08T06:45:26.065Z,970.71
2023-01-08T06:46:26.142Z,970.70
2023-01-08T06:47:26.077Z,970.70
2023-01-08T06:48:26.142Z,970.82
2023-01-08T06:49:26.042Z,970.78
2023-01-08T06:50:26.022Z,970.78
2023-01-08T06:51:26.018Z,970.81
2023-01-08T06:52:26.001Z,970.80
2023-01-08T06:53:25.992Z,970.79
2023-01-08T06:54:25.995Z,970.83
2023-01-08T06:55:25.975Z,970.85
2023-01-08T06:56:25.968Z,970.85
2023-01-08T06:57:25.951Z,970.86
2023-01-08T06:58:25.946Z,970.81
2023-01-08T06:59:25.986Z,970.83
2023-01-08T07:00:25.933Z,970.79
2023-01-08T07:01:26.043Z,970.81
2023-01-08T07:02:26.063Z,970.79
2023-01-08T07:03:26.018Z,970.78
2023-01-08T07:04:25.991Z,970.78
2023-01-08T07:05:25.906Z,970.73
2023-01-08T07:06:25.869Z,970.74
2023-01-08T07:07:25.876Z,970.78
2023-01-08T07:08:25.856Z,970.80
2023-01-08T07:09:25.880Z,970.86
2023-01-08T07:10:25.835Z,970.78
2023-01-08T07:11:25.826Z,970.82
2023-01-08T07:12:25.816Z,970.86
2023-01-08T07:13:25.806Z,970.86
2023-01-08T07:14:25.807Z,970.85
2023-01-08T07:15:25.787Z,970.86
2023-01-08T07:16:25.871Z,970.87
2023-01-08T07:17:25.771Z,970.85
2023-01-08T07:18:25.759Z,970.86
2023-01-08T07:19:25.764Z,970.87
2023-01-08T07:20:25.839Z,970.83
2023-01-08T07:21:25.732Z,970.86
2023-01-08T07:22:25.724Z,970.86
2023-01-08T07:23:25.712Z,970.87
2023-01-08T07:24:25.710Z,970.82
2023-01-08T07:25:26.046Z,970.81
2023-01-08T07:26:26.705Z,970.83
2023-01-08T07:27:25.677Z,970.77
2023-01-08T07:28:25.670Z,970.79
2023-01-08T07:29:25.674Z,970.77
2023-01-08T07:30:33.586Z,970.81
2023-01-08T07:31:27.725Z,970.79
2023-01-08T07:32:25.634Z,970.79
2023-01-08T07:33:25.627Z,970.74
2023-01-08T07:34:25.627Z,970.75
2023-01-08T07:35:25.610Z,970.79
2023-01-08T07:36:25.698Z,970.70
2023-01-08T07:37:25.587Z,970.72
2023-01-08T07:38:25.583Z,970.69
2023-01-08T07:39:25.583Z,970.76
2023-01-08T07:40:25.570Z,970.71
2023-01-08T07:41:25.553Z,970.70
2023-01-08T07:42:25.550Z,970.77
2023-01-08T07:43:25.540Z,970.75
2023-01-08T07:44:25.545Z,970.77
2023-01-08T07:45:25.524Z,970.70
2023-01-08T07:46:25.613Z,970.68
2023-01-08T07:47:25.509Z,970.65
2023-01-08T07:48:25.502Z,970.66
2023-01-08T07:49:25.500Z,970.70
2023-01-08T07:50:25.484Z,970.66
2023-01-08T07:51:25.472Z,970.67
2023-01-08T07:52:25.553Z,970.70
2023-01-08T07:53:25.458Z,970.76
2023-01-08T07:54:25.475Z,970.69
2023-01-08T07:55:25.436Z,970.78
2023-01-08T07:56:25.428Z,970.80
2023-01-08T07:57:25.425Z,970.78
2023-01-08T07:58:25.409Z,970.82
2023-01-08T07:59:25.418Z,970.84
2023-01-08T08:00:25.399Z,970.89
2023-01-08T08:01:25.458Z,970.90
2023-01-08T08:02:25.548Z,970.89
2023-01-08T08:03:25.422Z,970.92
2023-01-08T08:04:25.378Z,970.82
2023-01-08T08:05:25.351Z,970.80
2023-01-08T08:06:25.347Z,970.80
2023-01-08T08:07:25.336Z,970.86
2023-01-08T08:08:25.430Z,970.79
2023-01-08T08:09:25.330Z,970.79
2023-01-08T08:10:25.313Z,970.76
2023-01-08T08:11:25.302Z,970.73
2023-01-08T08:12:25.291Z,970.78
2023-01-08T08:13:25.281Z,970.84
2023-01-08T08:14:25.283Z,970.83
2023-01-08T08:15:25.259Z,970.77
2023-01-08T08:16:25.383Z,970.85
2023-01-08T08:17:25.243Z,970.81
2023-01-08T08:18:25.243Z,970.80
2023-01-08T08:19:25.256Z,970.79
2023-01-08T08:20:25.220Z,970.84
2023-01-08T08:21:25.217Z,970.71
2023-01-08T08:22:25.200Z,970.81
2023-01-08T08:23:25.192Z,970.81
2023-01-08T08:24:25.285Z,970.77
2023-01-08T08:25:25.175Z,970.83
2023-01-08T08:26:25.170Z,970.79
2023-01-08T08:27:25.159Z,970.85
2023-01-08T08:28:25.149Z,970.83
2023-01-08T08:29:25.153Z,970.78
2023-01-08T08:30:25.132Z,970.77
2023-01-08T08:31:25.251Z,970.73
2023-01-08T08:32:25.112Z,970.75
2023-01-08T08:33:25.100Z,970.82
2023-01-08T08:34:25.104Z,970.70
2023-01-08T08:35:25.091Z,970.76
2023-01-08T08:36:25.086Z,970.68
2023-01-08T08:37:25.067Z,970.69
2023-01-08T08:38:25.060Z,970.69
2023-01-08T08:39:25.053Z,970.71
2023-01-08T08:40:25.129Z,970.73
2023-01-08T08:41:25.039Z,970.68
2023-01-08T08:42:25.016Z,970.66
2023-01-08T08:43:25.009Z,970.66
2023-01-08T08:44:25.017Z,970.60
2023-01-08T08:45:24.996Z,970.61
2023-01-08T08:46:25.215Z,970.61
2023-01-08T08:47:24.976Z,970.65
2023-01-08T08:48:24.962Z,970.60
2023-01-08T08:49:24.968Z,970.62
2023-01-08T08:50:24.952Z,970.63
2023-01-08T08:51:24.944Z,970.55
2023-01-08T08:52:24.935Z,970.58
2023-01-08T08:53:26.986Z,970.47
2023-01-08T08:54:24.925Z,970.51
2023-01-08T08:55:24.907Z,970.52
2023-01-08T08:56:24.986Z,970.51
2023-01-08T08:57:24.881Z,970.60
2023-01-08T08:58:24.880Z,970.69
2023-01-08T08:59:24.881Z,970.73
2023-01-08T09:00:24.856Z,970.76
2023-01-08T09:01:24.974Z,970.69
2023-01-08T09:02:25.112Z,970.73
2023-01-08T09:03:24.859Z,970.71
2023-01-08T09:04:24.829Z,970.69
2023-01-08T09:05:24.811Z,970.71
2023-01-08T09:06:24.800Z,970.65
2023-01-08T09:07:24.788Z,970.67
2023-01-08T09:08:24.784Z,970.64
2023-01-08T09:09:24.802Z,970.68
2023-01-08T09:10:24.869Z,970.62
2023-01-08T09:11:24.768Z,970.57
2023-01-08T09:12:25.823Z,970.60
2023-01-08T09:13:24.729Z,970.68
2023-01-08T09:14:24.732Z,970.59
2023-01-08T09:15:24.710Z,970.59
2023-01-08T09:16:24.780Z,970.57
2023-01-08T09:17:24.704Z,970.50
2023-01-08T09:18:24.680Z,970.51
2023-01-08T09:19:24.690Z,970.54
2023-01-08T09:20:24.713Z,970.50
2023-01-08T09:21:24.667Z,970.54
2023-01-08T09:22:24.650Z,970.50
2023-01-08T09:23:24.667Z,970.55
2023-01-08T09:24:24.647Z,970.58
2023-01-08T09:25:24.626Z,970.58
2023-01-08T09:26:24.619Z,970.56
2023-01-08T09:27:24.605Z,970.63
2023-01-08T09:28:24.689Z,970.63
2023-01-08T09:29:24.596Z,970.54
2023-01-08T09:30:24.585Z,970.54
2023-01-08T09:31:24.635Z,970.53
2023-01-08T09:32:24.566Z,970.51
2023-01-08T09:33:24.551Z,970.48
2023-01-08T09:34:24.557Z,970.57
2023-01-08T09:35:24.541Z,970.58
2023-01-08T09:36:24.523Z,970.48
2023-01-08T09:37:24.547Z,970.53
2023-01-08T09:38:24.544Z,970.53
2023-01-08T09:39:24.497Z,970.50
2023-01-08T09:40:24.516Z,970.55
2023-01-08T09:41:24.480Z,970.57
2023-01-08T09:42:24.468Z,970.55
2023-01-08T09:43:24.458Z,970.56
2023-01-08T09:44:24.538Z,970.58
2023-01-08T09:45:24.450Z,970.58
2023-01-08T09:46:24.451Z,970.56
2023-01-08T09:47:24.448Z,970.55
2023-01-08T09:48:24.411Z,970.59
2023-01-08T09:49:24.408Z,970.63
2023-01-08T09:50:24.400Z,970.68
2023-01-08T09:51:24.383Z,970.74
2023-01-08T09:52:24.379Z,970.62
2023-01-08T09:53:24.370Z,970.65
2023-01-08T09:54:24.353Z,970.61
2023-01-08T09:55:24.356Z,970.68
2023-01-08T09:56:24.336Z,970.61
2023-01-08T09:57:24.352Z,970.63
2023-01-08T09:58:24.326Z,970.64
2023-01-08T09:59:24.307Z,970.62
2023-01-08T10:00:24.413Z,970.64
2023-01-08T10:01:24.373Z,970.64
2023-01-08T10:02:24.413Z,970.52
2023-01-08T10:03:24.268Z,970.58
2023-01-08T10:04:24.284Z,970.63
2023-01-08T10:05:24.273Z,970.54
2023-01-08T10:06:24.246Z,970.56
2023-01-08T10:07:24.232Z,970.56
2023-01-08T10:08:24.220Z,970.64
2023-01-08T10:09:24.216Z,970.61
2023-01-08T10:10:24.275Z,970.58
2023-01-08T10:11:24.195Z,970.55
2023-01-08T10:12:24.181Z,970.56
2023-01-08T10:13:24.173Z,970.53
2023-01-08T10:14:24.164Z,970.53
2023-01-08T10:15:24.161Z,970.57
2023-01-08T10:16:24.334Z,970.54
2023-01-08T10:17:24.136Z,970.51
2023-01-08T10:18:24.133Z,970.54
2023-01-08T10:19:24.123Z,970.44
2023-01-08T10:20:24.255Z,970.47
2023-01-08T10:21:24.100Z,970.41
2023-01-08T10:22:24.088Z,970.31
2023-01-08T10:23:24.084Z,970.36
2023-01-08T10:24:24.068Z,970.31
2023-01-08T10:25:24.081Z,970.27
2023-01-08T10:26:24.058Z,970.28
2023-01-08T10:27:24.048Z,970.26
2023-01-08T10:28:24.038Z,970.28
2023-01-08T10:29:24.027Z,970.35
2023-01-08T10:30:24.095Z,970.30
2023-01-08T10:31:24.056Z,970.32
2023-01-08T10:32:24.091Z,970.33
2023-01-08T10:33:23.993Z,970.32
2023-01-08T10:34:23.991Z,970.24
2023-01-08T10:35:23.987Z,970.23
2023-01-08T10:36:23.966Z,970.18
2023-01-08T10:37:23.964Z,970.16
2023-01-08T10:38:23.950Z,970.16
2023-01-08T10:39:23.947Z,970.14
2023-01-08T10:40:24.026Z,970.07
2023-01-08T10:41:23.917Z,970.10
2023-01-08T10:42:23.911Z,970.13
2023-01-08T10:43:23.902Z,970.06
2023-01-08T10:44:23.886Z,970.03
2023-01-08T10:45:23.888Z,970.05
2023-01-08T10:46:23.877Z,969.98
2023-01-08T10:47:23.864Z,969.93
2023-01-08T10:48:23.948Z,969.98
2023-01-08T10:49:23.851Z,969.99
2023-01-08T10:50:23.891Z,969.94
2023-01-08T10:51:23.840Z,969.97
2023-01-08T10:52:56.230Z,969.96
2023-01-08T10:53:23.804Z,969.98
2023-01-08T10:54:23.797Z,969.92
2023-01-08T10:55:23.794Z,970.01
2023-01-08T10:56:23.779Z,969.91
2023-01-08T10:57:23.766Z,969.94
2023-01-08T10:58:24.779Z,969.97
2023-01-08T10:59:23.806Z,969.94
2023-01-08T11:00:23.823Z,970.00
2023-01-08T11:01:23.777Z,969.96
2023-01-08T11:02:23.734Z,969.96
2023-01-08T11:03:23.713Z,969.94
2023-01-08T11:04:23.706Z,969.96
2023-01-08T11:05:23.708Z,969.96
2023-01-08T11:06:23.704Z,969.98
2023-01-08T11:07:23.692Z,969.95
2023-01-08T11:08:23.676Z,969.92
2023-01-08T11:09:23.684Z,969.95
2023-01-08T11:10:23.668Z,969.90
2023-01-08T11:11:23.658Z,969.86
2023-01-08T11:12:23.646Z,969.83
2023-01-08T11:13:23.625Z,969.90
2023-01-08T11:14:23.645Z,969.86
2023-01-08T11:15:23.628Z,969.86
2023-01-08T11:16:23.681Z,969.72
2023-01-08T11:17:23.599Z,969.78
2023-01-08T11:18:23.580Z,969.85
2023-01-08T11:19:23.580Z,969.80
2023-01-08T11:20:23.591Z,969.78
2023-01-08T11:21:23.557Z,969.72
2023-01-08T11:22:23.554Z,969.74
2023-01-08T11:23:23.537Z,969.71
2023-01-08T11:24:23.534Z,969.69
2023-01-08T11:25:23.537Z,969.61
2023-01-08T11:26:23.513Z,969.63
2023-01-08T11:27:23.509Z,969.65
2023-01-08T11:28:23.494Z,969.60
2023-01-08T11:29:23.490Z,969.56
2023-01-08T11:30:23.500Z,969.58
2023-01-08T11:31:23.511Z,969.56
2023-01-08T11:32:23.466Z,969.54
2023-01-08T11:33:23.452Z,969.52
2023-01-08T11:34:23.448Z,969.52
2023-01-08T11:35:23.466Z,969.51
2023-01-08T11:36:23.426Z,969.43
2023-01-08T11:37:23.429Z,969.47
2023-01-08T11:38:23.409Z,969.45
2023-01-08T11:39:23.412Z,969.48
2023-01-08T11:40:23.430Z,969.44
2023-01-08T11:41:25.523Z,969.47
2023-01-08T11:42:23.375Z,969.47
2023-01-08T11:43:23.363Z,969.45
2023-01-08T11:44:23.380Z,969.47
2023-01-08T11:45:23.394Z,969.43
2023-01-08T11:46:23.345Z,969.36
2023-01-08T11:47:23.331Z,969.45
2023-01-08T11:48:23.334Z,969.38
2023-01-08T11:49:23.308Z,969.34
2023-01-08T11:50:24.316Z,969.37
2023-01-08T11:51:23.300Z,969.37
2023-01-08T11:52:23.310Z,969.42
2023-01-08T11:53:23.281Z,969.42
2023-01-08T11:54:23.301Z,969.39
2023-01-08T11:55:23.274Z,969.31
2023-01-08T11:56:23.269Z,969.23
2023-01-08T11:57:23.255Z,969.35
2023-01-08T11:58:23.240Z,969.37
2023-01-08T11:59:23.241Z,969.32
2023-01-08T12:00:23.354Z,969.31
2023-01-08T12:01:23.237Z,969.27
2023-01-08T12:02:23.209Z,969.28
2023-01-08T12:03:23.252Z,969.27
2023-01-08T12:04:23.180Z,969.28
2023-01-08T12:05:23.188Z,969.23
2023-01-08T12:06:23.162Z,969.28
2023-01-08T12:07:23.156Z,969.28
2023-01-08T12:08:23.148Z,969.20
2023-01-08T12:09:23.142Z,969.15
2023-01-08T12:10:23.127Z,969.20
2023-01-08T12:11:23.131Z,969.14
2023-01-08T12:12:23.109Z,969.13
2023-01-08T12:13:23.106Z,969.13
2023-01-08T12:14:23.122Z,969.07
2023-01-08T12:15:23.093Z,969.07
2023-01-08T12:16:23.123Z,969.07
2023-01-08T12:17:24.852Z,969.02
2023-01-08T12:18:24.055Z,969.00
2023-01-08T12:19:23.043Z,968.97
2023-01-08T12:20:23.040Z,968.92
2023-01-08T12:21:23.043Z,968.95
2023-01-08T12:22:23.033Z,968.94
2023-01-08T12:23:23.012Z,968.87
2023-01-08T12:24:23.002Z,968.96
2023-01-08T12:25:22.989Z,968.90
2023-01-08T12:26:23.054Z,968.92
2023-01-08T12:27:29.818Z,968.88
2023-01-08T12:28:24.962Z,968.89